Aviation Digital Data Service (ADDS)

Output produced by METARs form (0344 UTC 23 November 2017)
found at http://www.aviationweather.gov/adds/metars/
 
TAF TAPA 222300Z 2300/2324 10008KT 9999 SCT020 
     PROB40 
     TEMPO 2200/2312 SHRA